createdAt,value
2019-04-07T00:01:15.776Z,13.54
2019-04-07T00:06:19.060Z,13.36
2019-04-07T00:11:21.862Z,13.23
2019-04-07T00:16:25.145Z,13.08
2019-04-07T00:21:28.074Z,12.85
2019-04-07T00:26:31.165Z,12.67
2019-04-07T00:31:34.052Z,12.90
2019-04-07T00:36:37.791Z,13.06
2019-04-07T00:41:40.749Z,13.11
2019-04-07T00:46:43.451Z,12.95
2019-04-07T00:51:47.462Z,12.84
2019-04-07T00:56:50.349Z,12.54
2019-04-07T01:01:54.588Z,12.45
2019-04-07T01:06:58.132Z,12.49
2019-04-07T01:12:00.819Z,12.59
2019-04-07T01:17:03.909Z,12.54
2019-04-07T01:22:06.613Z,12.40
2019-04-07T01:27:09.320Z,12.50
2019-04-07T01:32:12.000Z,12.44
2019-04-07T01:37:15.306Z,12.18
2019-04-07T01:42:29.227Z,11.83
2019-04-07T01:47:47.496Z,11.81
2019-04-07T01:53:16.021Z,11.87
2019-04-07T01:58:37.145Z,12.01
2019-04-07T02:03:59.489Z,12.01
2019-04-07T02:09:11.309Z,11.88
2019-04-07T02:14:35.585Z,11.80
2019-04-07T02:19:54.962Z,11.75
2019-04-07T02:25:17.402Z,11.67
2019-04-07T02:30:31.705Z,11.58
2019-04-07T02:35:51.220Z,11.69
2019-04-07T02:41:12.351Z,11.64
2019-04-07T02:46:41.005Z,11.50
2019-04-07T02:52:03.910Z,11.53
2019-04-07T02:57:32.073Z,11.61
2019-04-07T03:02:52.421Z,11.80
2019-04-07T03:08:04.251Z,11.89
2019-04-07T03:13:38.480Z,12.21
2019-04-07T03:19:06.628Z,12.19
2019-04-07T03:24:32.456Z,12.06
2019-04-07T03:30:09.300Z,12.16
2019-04-07T03:35:34.061Z,12.13
2019-04-07T03:40:50.114Z,12.19
2019-04-07T03:46:18.406Z,12.19
2019-04-07T03:51:37.771Z,12.26
2019-04-07T03:57:18.365Z,12.09
2019-04-07T04:02:37.995Z,12.13
2019-04-07T04:07:47.228Z,12.19
2019-04-07T04:13:12.259Z,11.98
2019-04-07T04:18:16.168Z,12.06
2019-04-07T04:23:19.808Z,11.89
2019-04-07T04:28:23.465Z,12.07
2019-04-07T04:33:26.385Z,11.96
2019-04-07T04:38:29.923Z,12.06
2019-04-07T04:43:32.786Z,11.87
2019-04-07T04:48:35.482Z,11.85
2019-04-07T04:53:38.256Z,11.84
2019-04-07T04:58:40.980Z,11.88
2019-04-07T05:03:43.698Z,12.05
2019-04-07T05:08:46.882Z,12.01
2019-04-07T05:13:50.173Z,12.01
2019-04-07T05:18:52.981Z,12.11
2019-04-07T05:23:56.104Z,12.08
2019-04-07T05:28:59.386Z,12.27
2019-04-07T05:34:02.822Z,12.38
2019-04-07T05:39:07.480Z,12.53
2019-04-07T05:44:10.277Z,12.54
2019-04-07T05:49:15.762Z,12.88
2019-04-07T05:54:19.774Z,12.95
2019-04-07T05:59:22.300Z,13.20
2019-04-07T06:04:25.056Z,13.35
2019-04-07T06:09:28.096Z,13.43
2019-04-07T06:14:30.855Z,13.47
2019-04-07T06:19:37.511Z,13.44
2019-04-07T06:24:38.443Z,13.45
2019-04-07T06:29:41.380Z,13.59
2019-04-07T06:34:44.428Z,13.85
2019-04-07T06:39:50.743Z,14.07
2019-04-07T06:44:52.831Z,14.28
2019-04-07T06:50:14.940Z,14.37
2019-04-07T06:55:30.087Z,14.54
2019-04-07T07:00:53.636Z,14.71
2019-04-07T07:06:18.547Z,15.06
2019-04-07T07:11:45.171Z,15.18
2019-04-07T07:17:15.821Z,15.43
2019-04-07T07:22:21.932Z,15.66
2019-04-07T07:27:25.806Z,15.97
2019-04-07T07:32:29.158Z,16.11
2019-04-07T07:37:31.939Z,16.38
2019-04-07T07:42:34.642Z,16.64
2019-04-07T07:47:37.349Z,16.71
2019-04-07T07:52:40.233Z,16.88
2019-04-07T07:57:43.678Z,16.93
2019-04-07T08:02:49.949Z,16.98
2019-04-07T08:07:51.260Z,17.24
2019-04-07T08:12:54.026Z,17.59
2019-04-07T08:17:57.379Z,17.45
2019-04-07T08:23:00.698Z,17.54
2019-04-07T08:28:04.572Z,17.82
2019-04-07T08:33:08.237Z,18.04
2019-04-07T08:38:11.153Z,17.87
2019-04-07T08:43:14.829Z,17.93
2019-04-07T08:48:19.383Z,18.04
2019-04-07T08:53:22.886Z,18.09
2019-04-07T08:58:29.727Z,17.93
2019-04-07T09:03:30.399Z,17.98
2019-04-07T09:08:36.126Z,18.20
2019-04-07T09:13:38.394Z,18.40
2019-04-07T09:19:04.377Z,18.74
2019-04-07T09:24:14.966Z,19.05
2019-04-07T09:29:57.831Z,19.05
2019-04-07T09:35:22.876Z,19.13
2019-04-07T09:40:48.780Z,19.33
2019-04-07T09:46:10.951Z,19.24
2019-04-07T09:51:49.576Z,19.43
2019-04-07T09:57:21.184Z,19.73
2019-04-07T10:02:49.332Z,19.64
2019-04-07T10:08:02.192Z,19.66
2019-04-07T10:13:16.334Z,20.01
2019-04-07T10:18:34.822Z,19.96
2019-04-07T10:23:58.690Z,19.97
2019-04-07T10:29:21.948Z,20.12
2019-04-07T10:34:43.677Z,20.27
2019-04-07T10:40:16.526Z,20.44
2019-04-07T10:45:44.852Z,20.49
2019-04-07T10:51:10.451Z,20.47
2019-04-07T10:56:38.845Z,20.46
2019-04-07T11:01:53.440Z,20.86
2019-04-07T11:07:05.200Z,20.82
2019-04-07T11:12:33.666Z,21.01
2019-04-07T11:17:45.251Z,21.23
2019-04-07T11:23:03.052Z,21.28
2019-04-07T11:28:16.627Z,21.55
2019-04-07T11:33:41.818Z,21.19
2019-04-07T11:38:58.342Z,21.36
2019-04-07T11:44:21.618Z,21.65
2019-04-07T11:49:31.289Z,21.65
2019-04-07T11:54:57.428Z,22.02
2019-04-07T12:00:18.398Z,21.97
2019-04-07T12:05:49.632Z,22.00
2019-04-07T12:11:08.061Z,21.75
2019-04-07T12:16:28.670Z,21.86
2019-04-07T12:21:38.548Z,21.71
2019-04-07T12:27:04.849Z,21.97
2019-04-07T12:32:34.243Z,22.10
2019-04-07T12:38:10.793Z,22.29
2019-04-07T12:43:29.200Z,22.52
2019-04-07T12:48:51.688Z,22.05
2019-04-07T12:54:16.861Z,22.15
2019-04-07T12:59:48.873Z,22.30
2019-04-07T13:05:02.908Z,22.52
2019-04-07T13:10:17.940Z,22.67
2019-04-07T13:15:45.528Z,22.45
2019-04-07T13:21:08.996Z,22.38
2019-04-07T13:26:17.622Z,22.22
2019-04-07T13:31:32.905Z,22.27
2019-04-07T13:36:55.463Z,22.11
2019-04-07T13:42:20.854Z,22.71
2019-04-07T13:47:38.674Z,22.43
2019-04-07T13:52:54.145Z,22.43
2019-04-07T13:58:10.936Z,22.59
2019-04-07T14:03:25.140Z,22.47
2019-04-07T14:08:57.567Z,22.34
2019-04-07T14:14:12.277Z,22.52
2019-04-07T14:19:44.432Z,22.83
2019-04-07T14:25:01.571Z,23.14
2019-04-07T14:30:11.421Z,23.37
2019-04-07T14:35:36.977Z,23.27
2019-04-07T14:41:05.333Z,23.26
2019-04-07T14:46:28.458Z,23.47
2019-04-07T14:51:51.457Z,23.52
2019-04-07T14:57:12.798Z,23.47
2019-04-07T15:02:15.881Z,23.69
2019-04-07T15:07:47.087Z,23.71
2019-04-07T15:12:53.481Z,23.42
2019-04-07T15:17:56.237Z,23.44
2019-04-07T15:23:00.251Z,23.42
2019-04-07T15:28:04.343Z,23.28
2019-04-07T15:33:07.343Z,23.06
2019-04-07T15:38:10.935Z,23.16
2019-04-07T15:43:13.755Z,22.95
2019-04-07T15:48:17.125Z,22.57
2019-04-07T15:53:19.954Z,22.73
2019-04-07T15:58:26.798Z,22.52
2019-04-07T16:03:28.772Z,22.70
2019-04-07T16:08:31.990Z,22.56
2019-04-07T16:13:35.794Z,22.65
2019-04-07T16:18:40.301Z,22.66
2019-04-07T16:23:43.248Z,22.52
2019-04-07T16:28:46.534Z,22.38
2019-04-07T16:33:49.945Z,22.42
2019-04-07T16:38:53.230Z,22.52
2019-04-07T16:43:56.093Z,22.22
2019-04-07T16:48:59.738Z,22.32
2019-04-07T16:54:02.781Z,22.11
2019-04-07T16:59:09.085Z,21.92
2019-04-07T17:04:10.472Z,21.84
2019-04-07T17:09:17.869Z,21.71
2019-04-07T17:14:20.764Z,21.54
2019-04-07T17:19:26.627Z,21.51
2019-04-07T17:24:30.307Z,21.38
2019-04-07T17:29:33.113Z,21.11
2019-04-07T17:34:36.791Z,21.12
2019-04-07T17:39:48.281Z,20.84
2019-04-07T17:45:09.752Z,20.72
2019-04-07T17:50:33.782Z,20.50
2019-04-07T17:56:03.781Z,20.36
2019-04-07T18:01:20.604Z,20.19
2019-04-07T18:06:44.652Z,19.99
2019-04-07T18:12:13.897Z,19.88
2019-04-07T18:17:26.406Z,19.67
2019-04-07T18:22:53.940Z,19.51
2019-04-07T18:28:24.138Z,19.28
2019-04-07T18:34:02.465Z,19.01
2019-04-07T18:39:27.502Z,18.81
2019-04-07T18:44:44.677Z,18.75
2019-04-07T18:50:10.320Z,18.60
2019-04-07T18:55:38.284Z,18.51
2019-04-07T19:01:11.776Z,18.50
2019-04-07T19:06:25.720Z,18.38
2019-04-07T19:12:02.427Z,18.27
2019-04-07T19:17:22.392Z,18.09
2019-04-07T19:22:52.808Z,17.86
2019-04-07T19:28:10.066Z,17.60
2019-04-07T19:33:37.683Z,17.40
2019-04-07T19:38:54.896Z,17.23
2019-04-07T19:44:33.922Z,16.88
2019-04-07T19:49:47.622Z,16.77
2019-04-07T19:55:01.576Z,16.63
2019-04-07T20:00:26.258Z,16.54
2019-04-07T20:05:43.797Z,16.49
2019-04-07T20:11:19.834Z,16.42
2019-04-07T20:16:28.832Z,16.34
2019-04-07T20:21:41.127Z,16.32
2019-04-07T20:26:59.746Z,16.25
2019-04-07T20:32:25.109Z,16.18
2019-04-07T20:37:48.899Z,16.11
2019-04-07T20:43:23.625Z,16.12
2019-04-07T20:48:38.766Z,16.06
2019-04-07T20:54:03.458Z,15.71
2019-04-07T20:59:12.638Z,15.48
2019-04-07T21:04:37.828Z,15.21
2019-04-07T21:10:07.612Z,15.15
2019-04-07T21:15:26.802Z,15.12
2019-04-07T21:20:45.478Z,14.85
2019-04-07T21:26:14.051Z,14.89
2019-04-07T21:31:26.462Z,14.72
2019-04-07T21:36:46.356Z,14.73
2019-04-07T21:42:07.626Z,14.70
2019-04-07T21:47:28.000Z,14.62
2019-04-07T21:52:40.915Z,14.47
2019-04-07T21:58:00.925Z,14.33
2019-04-07T22:03:27.606Z,14.24
2019-04-07T22:08:49.852Z,14.16
2019-04-07T22:13:53.368Z,14.05
2019-04-07T22:18:56.903Z,13.91
2019-04-07T22:24:01.288Z,13.67
2019-04-07T22:29:05.437Z,13.51
2019-04-07T22:34:09.013Z,13.58
2019-04-07T22:39:12.071Z,13.87
2019-04-07T22:44:15.526Z,13.95
2019-04-07T22:49:18.406Z,13.88
2019-04-07T22:54:21.121Z,13.70
2019-04-07T22:59:23.925Z,13.54
2019-04-07T23:04:26.759Z,13.42
2019-04-07T23:09:30.045Z,13.22
2019-04-07T23:14:33.660Z,13.16
2019-04-07T23:19:36.594Z,13.14
2019-04-07T23:24:39.310Z,13.07
2019-04-07T23:29:42.314Z,13.11
2019-04-07T23:34:45.725Z,13.16
2019-04-07T23:39:49.561Z,12.98
2019-04-07T23:44:53.151Z,13.15
2019-04-07T23:49:55.971Z,13.17
2019-04-07T23:54:58.838Z,13.10
